Time,TemperatureF,DewpointF,PressureIn,WindDirection,WindDirectionDegrees,WindSpeedMPH,WindSpeedGustMPH,Humidity,HourlyPrecipIn,Conditions,Clouds,dailyrainin,SoftwareType,DateUTC
2013-02-16 00:14:00,20.2,15.0,30.09,NNW,340,0.0,-999.0,79,-99.99,,,0.00,weatherlink.com 1.10,2013-02-16 05:14:00,
2013-02-16 00:29:00,19.9,15.0,30.09,NNW,328,0.0,-999.0,81,-99.99,,,0.00,weatherlink.com 1.10,2013-02-16 05:29:00,
2013-02-16 00:44:00,19.5,15.0,30.09,NNW,328,0.0,-999.0,82,-99.99,,,0.00,weatherlink.com 1.10,2013-02-16 05:44:00,
2013-02-16 00:59:00,19.0,15.0,30.08,NNW,328,0.0,-999.0,83,-99.99,,,0.00,weatherlink.com 1.10,2013-02-16 05:59:00,
2013-02-16 01:14:00,18.6,14.0,30.08,NNW,328,0.0,-999.0,83,-99.99,,,0.00,weatherlink.com 1.10,2013-02-16 06:14:00,
2013-02-16 01:29:00,18.2,14.0,30.09,NNW,328,0.0,-999.0,84,-99.99,,,0.00,weatherlink.com 1.10,2013-02-16 06:29:00,
2013-02-16 01:44:00,18.3,15.0,30.08,NNW,328,0.0,-999.0,85,-99.99,,,0.00,weatherlink.com 1.10,2013-02-16 06:44:00,
2013-02-16 01:59:00,18.5,15.0,30.08,NNW,328,0.0,-999.0,85,-99.99,,,0.00,weatherlink.com 1.10,2013-02-16 06:59:00,
2013-02-16 02:14:00,18.7,15.0,30.07,NNW,328,0.0,-999.0,85,-99.99,,,0.00,weatherlink.com 1.10,2013-02-16 07:14:00,
2013-02-16 02:29:00,19.2,15.0,30.07,NNW,328,0.0,-999.0,84,-99.99,,,0.00,weatherlink.com 1.10,2013-02-16 07:29:00,
2013-02-16 02:44:00,18.9,15.0,30.06,NNW,328,0.0,-999.0,84,-99.99,,,0.00,weatherlink.com 1.10,2013-02-16 07:44:00,
2013-02-16 03:00:00,18.7,14.0,30.05,NNW,328,0.0,-999.0,83,-99.99,,,0.00,weatherlink.com 1.10,2013-02-16 08:00:00,
2013-02-16 03:15:00,18.9,15.0,30.06,NW,321,3.0,-999.0,84,-99.99,,,0.00,weatherlink.com 1.10,2013-02-16 08:15:00,
2013-02-16 03:30:00,18.7,15.0,30.05,West,280,2.0,-999.0,84,-99.99,,,0.00,weatherlink.com 1.10,2013-02-16 08:30:00,
2013-02-16 03:45:00,18.1,14.0,30.05,West,267,2.0,-999.0,85,-99.99,,,0.00,weatherlink.com 1.10,2013-02-16 08:45:00,
2013-02-16 04:00:00,17.5,14.0,30.05,NW,315,2.0,-999.0,86,-99.99,,,0.00,weatherlink.com 1.10,2013-02-16 09:00:00,
2013-02-16 04:15:00,17.5,14.0,30.05,WNW,296,2.0,-999.0,86,-99.99,,,0.00,weatherlink.com 1.10,2013-02-16 09:15:00,
2013-02-16 04:30:00,17.4,14.0,30.05,NW,309,3.0,-999.0,87,-99.99,,,0.00,weatherlink.com 1.10,2013-02-16 09:30:00,
2013-02-16 04:45:00,17.7,15.0,30.05,NW,311,3.0,-999.0,87,-99.99,,,0.00,weatherlink.com 1.10,2013-02-16 09:45:00,
2013-02-16 05:00:00,17.7,15.0,30.04,NW,311,1.0,-999.0,87,-99.99,,,0.00,weatherlink.com 1.10,2013-02-16 10:00:00,
2013-02-16 05:15:00,17.4,14.0,30.04,NW,311,0.0,-999.0,87,-99.99,,,0.00,weatherlink.com 1.10,2013-02-16 10:15:00,
2013-02-16 05:30:00,17.2,14.0,30.04,NW,311,1.0,-999.0,88,-99.99,,,0.00,weatherlink.com 1.10,2013-02-16 10:30:00,
2013-02-16 05:45:00,17.2,14.0,30.04,WNW,290,2.0,-999.0,88,-99.99,,,0.00,weatherlink.com 1.10,2013-02-16 10:45:00,
2013-02-16 06:00:00,17.2,15.0,30.04,West,261,2.0,-999.0,89,-99.99,,,0.00,weatherlink.com 1.10,2013-02-16 11:00:00,
2013-02-16 06:15:00,17.2,15.0,30.03,West,265,1.0,-999.0,89,-99.99,,,0.00,weatherlink.com 1.10,2013-02-16 11:15:00,
2013-02-16 06:30:00,17.3,15.0,30.03,West,273,1.0,-999.0,89,-99.99,,,0.00,weatherlink.com 1.10,2013-02-16 11:30:00,
2013-02-16 06:45:00,17.7,15.0,30.03,WSW,255,3.0,-999.0,89,-99.99,,,0.00,weatherlink.com 1.10,2013-02-16 11:45:00,
2013-02-16 07:00:00,18.1,15.0,30.03,West,280,2.0,-999.0,89,-99.99,,,0.00,weatherlink.com 1.10,2013-02-16 12:00:00,
2013-02-16 07:15:00,18.4,16.0,30.02,WNW,302,3.0,-999.0,89,-99.99,,,0.00,weatherlink.com 1.10,2013-02-16 12:15:00,
2013-02-16 07:30:00,18.6,16.0,30.02,NW,317,3.0,-999.0,89,-99.99,,,0.00,weatherlink.com 1.10,2013-02-16 12:30:00,
2013-02-16 07:45:00,18.7,16.0,30.03,NW,305,2.0,-999.0,88,-99.99,,,0.00,weatherlink.com 1.10,2013-02-16 12:45:00,
2013-02-16 08:00:00,18.9,16.0,30.03,NW,309,2.0,-999.0,88,-99.99,,,0.00,weatherlink.com 1.10,2013-02-16 13:00:00,
2013-02-16 08:15:00,19.1,16.0,30.03,NW,306,1.0,-999.0,88,-99.99,,,0.00,weatherlink.com 1.10,2013-02-16 13:15:00,
2013-02-16 08:30:00,19.3,16.0,30.03,WNW,302,4.0,-999.0,88,-99.99,,,0.00,weatherlink.com 1.10,2013-02-16 13:30:00,
2013-02-16 08:45:00,19.5,17.0,30.02,West,275,1.0,-999.0,89,-99.99,,,0.00,weatherlink.com 1.10,2013-02-16 13:45:00,
2013-02-16 09:00:00,19.9,17.0,30.02,NW,306,2.0,-999.0,88,-99.99,,,0.00,weatherlink.com 1.10,2013-02-16 14:00:00,
2013-02-16 09:15:00,20.2,17.0,30.02,NW,304,8.0,-999.0,87,-99.99,,,0.00,weatherlink.com 1.10,2013-02-16 14:15:00,
2013-02-16 09:30:00,20.7,17.0,30.03,SSW,211,2.0,-999.0,85,-99.99,,,0.00,weatherlink.com 1.10,2013-02-16 14:30:00,
2013-02-16 09:45:00,21.1,16.0,30.02,NW,309,5.0,-999.0,82,-99.99,,,0.00,weatherlink.com 1.10,2013-02-16 14:45:00,
2013-02-16 10:00:00,21.6,16.0,30.02,WNW,295,7.0,-999.0,78,-99.99,,,0.00,weatherlink.com 1.10,2013-02-16 15:00:00,
2013-02-16 10:15:00,21.7,15.0,30.02,WNW,303,3.0,-999.0,75,-99.99,,,0.00,weatherlink.com 1.10,2013-02-16 15:15:00,
2013-02-16 10:30:00,21.6,16.0,30.02,WNW,283,4.0,-999.0,78,-99.99,,,0.00,weatherlink.com 1.10,2013-02-16 15:30:00,
2013-02-16 10:45:00,22.0,17.0,30.02,NNW,330,3.0,-999.0,80,-99.99,,,0.00,weatherlink.com 1.10,2013-02-16 15:45:00,
2013-02-16 11:00:00,22.4,16.0,30.01,WNW,302,3.0,-999.0,75,-99.99,,,0.00,weatherlink.com 1.10,2013-02-16 16:00:00,
2013-02-16 11:15:00,22.9,15.0,30.01,NNW,342,3.0,-999.0,72,-99.99,,,0.00,weatherlink.com 1.10,2013-02-16 16:15:00,
2013-02-16 11:30:00,22.9,15.0,30.01,NW,323,3.0,-999.0,73,-99.99,,,0.00,weatherlink.com 1.10,2013-02-16 16:30:00,
2013-02-16 11:45:00,22.7,16.0,30.01,NE,38,1.0,-999.0,76,-99.99,,,0.00,weatherlink.com 1.10,2013-02-16 16:45:00,
2013-02-16 12:00:00,22.1,17.0,30.01,NNW,336,4.0,-999.0,81,-99.99,,,0.00,weatherlink.com 1.10,2013-02-16 17:00:00,
2013-02-16 12:15:00,22.2,18.0,30.01,NW,307,5.0,-999.0,83,-99.99,,,0.00,weatherlink.com 1.10,2013-02-16 17:15:00,
2013-02-16 12:30:00,21.7,18.0,30.00,WNW,286,4.0,-999.0,86,-99.99,,,0.00,weatherlink.com 1.10,2013-02-16 17:30:00,
2013-02-16 12:45:00,20.8,18.0,30.00,WNW,302,4.0,-999.0,88,-99.99,,,0.00,weatherlink.com 1.10,2013-02-16 17:45:00,
2013-02-16 13:00:00,20.9,17.0,30.00,NNW,335,3.0,-999.0,86,-99.99,,,0.00,weatherlink.com 1.10,2013-02-16 18:00:00,
2013-02-16 13:15:00,21.6,18.0,29.99,NW,325,3.0,-999.0,84,-99.99,,,0.00,weatherlink.com 1.10,2013-02-16 18:15:00,
2013-02-16 13:30:00,22.5,18.0,29.99,NW,325,1.0,-999.0,82,-99.99,,,0.00,weatherlink.com 1.10,2013-02-16 18:30:00,
2013-02-16 13:45:00,22.8,16.0,29.98,WNW,291,5.0,-999.0,76,-99.99,,,0.00,weatherlink.com 1.10,2013-02-16 18:45:00,
2013-02-16 14:01:00,23.3,15.0,29.98,NW,323,3.0,-999.0,70,-99.99,,,0.00,weatherlink.com 1.10,2013-02-16 19:01:00,
2013-02-16 14:16:00,23.5,14.0,29.97,NE,42,4.0,-999.0,67,-99.99,,,0.00,weatherlink.com 1.10,2013-02-16 19:16:00,
2013-02-16 14:31:00,23.5,13.0,29.98,NNE,29,0.0,-999.0,63,-99.99,,,0.00,weatherlink.com 1.10,2013-02-16 19:31:00,
2013-02-16 14:46:00,23.5,15.0,29.98,ENE,61,0.0,-999.0,69,-99.99,,,0.00,weatherlink.com 1.10,2013-02-16 19:46:00,
2013-02-16 15:01:00,23.2,15.0,29.98,ENE,61,8.0,-999.0,70,-99.99,,,0.00,weatherlink.com 1.10,2013-02-16 20:01:00,
2013-02-16 15:16:00,22.5,15.0,29.98,West,273,4.0,-999.0,73,-99.99,,,0.00,weatherlink.com 1.10,2013-02-16 20:16:00,
2013-02-16 15:31:00,22.1,13.0,29.98,NNW,340,6.0,-999.0,69,-99.99,,,0.00,weatherlink.com 1.10,2013-02-16 20:31:00,
2013-02-16 15:46:00,22.7,14.0,29.99,NE,50,2.0,-999.0,69,-99.99,,,0.00,weatherlink.com 1.10,2013-02-16 20:46:00,
2013-02-16 16:01:00,23.1,13.0,29.99,WNW,296,2.0,-999.0,64,-99.99,,,0.00,weatherlink.com 1.10,2013-02-16 21:01:00,
2013-02-16 16:16:00,22.7,11.0,29.99,ESE,119,1.0,-999.0,62,-99.99,,,0.00,weatherlink.com 1.10,2013-02-16 21:16:00,
2013-02-16 16:31:00,22.2,11.0,30.00,East,92,4.0,-999.0,62,-99.99,,,0.00,weatherlink.com 1.10,2013-02-16 21:31:00,
2013-02-16 16:46:00,22.1,12.0,30.00,ENE,67,3.0,-999.0,64,-99.99,,,0.00,weatherlink.com 1.10,2013-02-16 21:46:00,
2013-02-16 17:01:00,20.8,14.0,30.01,NE,36,2.0,-999.0,76,-99.99,,,0.00,weatherlink.com 1.10,2013-02-16 22:01:00,
2013-02-16 17:16:00,20.1,14.0,30.01,ENE,57,2.0,-999.0,76,-99.99,,,0.00,weatherlink.com 1.10,2013-02-16 22:16:00,
2013-02-16 17:31:00,19.1,15.0,30.01,ENE,74,0.0,-999.0,82,-99.99,,,0.00,weatherlink.com 1.10,2013-02-16 22:31:00,
2013-02-16 17:46:00,18.8,15.0,30.01,ENE,71,2.0,-999.0,85,-99.99,,,0.00,weatherlink.com 1.10,2013-02-16 22:46:00,
2013-02-16 18:01:00,18.7,15.0,30.02,NE,54,2.0,-999.0,84,-99.99,,,0.00,weatherlink.com 1.10,2013-02-16 23:01:00,
2013-02-16 18:16:00,18.5,15.0,30.03,East,87,2.0,-999.0,84,-99.99,,,0.00,weatherlink.com 1.10,2013-02-16 23:16:00,
2013-02-16 18:31:00,18.3,14.0,30.03,ENE,61,2.0,-999.0,83,-99.99,,,0.00,weatherlink.com 1.10,2013-02-16 23:31:00,
2013-02-16 18:46:00,17.8,13.0,30.04,North,355,2.0,-999.0,82,-99.99,,,0.00,weatherlink.com 1.10,2013-02-16 23:46:00,
2013-02-16 19:01:00,17.2,13.0,30.04,NNE,22,0.0,-999.0,83,-99.99,,,0.00,weatherlink.com 1.10,2013-02-17 00:01:00,
2013-02-16 19:16:00,16.7,12.0,30.05,NNE,22,0.0,-999.0,83,-99.99,,,0.00,weatherlink.com 1.10,2013-02-17 00:16:00,
2013-02-16 19:31:00,16.3,12.0,30.05,NNE,15,0.0,-999.0,84,-99.99,,,0.00,weatherlink.com 1.10,2013-02-17 00:31:00,
2013-02-16 19:46:00,16.1,12.0,30.05,NNW,336,2.0,-999.0,84,-99.99,,,0.00,weatherlink.com 1.10,2013-02-17 00:46:00,
2013-02-16 20:01:00,16.1,12.0,30.05,North,349,0.0,-999.0,84,-99.99,,,0.00,weatherlink.com 1.10,2013-02-17 01:01:00,
2013-02-16 20:16:00,15.8,12.0,30.05,North,349,0.0,-999.0,84,-99.99,,,0.00,weatherlink.com 1.10,2013-02-17 01:16:00,
2013-02-16 20:31:00,15.5,12.0,30.05,North,349,0.0,-999.0,85,-99.99,,,0.00,weatherlink.com 1.10,2013-02-17 01:31:00,
2013-02-16 20:46:00,15.1,11.0,30.05,North,349,0.0,-999.0,85,-99.99,,,0.00,weatherlink.com 1.10,2013-02-17 01:46:00,
2013-02-16 21:01:00,14.8,11.0,30.05,North,349,1.0,-999.0,86,-99.99,,,0.00,weatherlink.com 1.10,2013-02-17 02:01:00,
2013-02-16 21:16:00,14.6,11.0,30.05,North,349,0.0,-999.0,86,-99.99,,,0.00,weatherlink.com 1.10,2013-02-17 02:16:00,
2013-02-16 21:31:00,14.8,12.0,30.06,North,349,0.0,-999.0,87,-99.99,,,0.00,weatherlink.com 1.10,2013-02-17 02:31:00,
2013-02-16 21:46:00,14.6,11.0,30.06,North,349,0.0,-999.0,87,-99.99,,,0.00,weatherlink.com 1.10,2013-02-17 02:46:00,
2013-02-16 22:01:00,14.6,12.0,30.06,North,349,0.0,-999.0,88,-99.99,,,0.00,weatherlink.com 1.10,2013-02-17 03:01:00,
2013-02-16 22:16:00,14.6,12.0,30.06,North,349,0.0,-999.0,88,-99.99,,,0.00,weatherlink.com 1.10,2013-02-17 03:16:00,
2013-02-16 22:31:00,14.8,12.0,30.06,NNW,340,2.0,-999.0,88,-99.99,,,0.00,weatherlink.com 1.10,2013-02-17 03:31:00,
2013-02-16 22:46:00,15.0,12.0,30.06,NNE,24,0.0,-999.0,87,-99.99,,,0.00,weatherlink.com 1.10,2013-02-17 03:46:00,
2013-02-16 23:01:00,14.9,12.0,30.05,NNE,19,0.0,-999.0,87,-99.99,,,0.00,weatherlink.com 1.10,2013-02-17 04:01:00,
2013-02-16 23:16:00,14.9,12.0,30.05,NNW,344,0.0,-999.0,87,-99.99,,,0.00,weatherlink.com 1.10,2013-02-17 04:16:00,
2013-02-16 23:31:00,15.0,12.0,30.05,North,355,0.0,-999.0,88,-99.99,,,0.00,weatherlink.com 1.10,2013-02-17 04:31:00,
2013-02-16 23:46:00,15.0,12.0,30.06,North,355,0.0,-999.0,88,-99.99,,,0.00,weatherlink.com 1.10,2013-02-17 04:46:00,